Time;durP1;ratioP1;P1;durP2;ratioP2;P2;SDS_P1;SDS_P2;PMS_P1;PMS_P2;Temp;Humidity;BMP_temperature;BMP_pressure;BME280_temperature;BME280_humidity;BME280_pressure;Samples;Min_cycle;Max_cycle;Signal;HPM_P1;HPM_P2
2021/03/18 00:00:56;;;;;;;13.65;8.45;;;1.20;99.90;;;;;;5054904;28;20031;-68
2021/03/18 00:03:26;;;;;;;12.77;8.00;;;1.10;99.90;;;;;;5055092;28;20021;-67
2021/03/18 00:05:52;;;;;;;16.88;9.48;;;1.00;99.90;;;;;;5063940;28;20017;-68
2021/03/18 00:08:18;;;;;;;11.85;9.25;;;1.00;99.90;;;;;;5055678;28;20028;-69
2021/03/18 00:10:44;;;;;;;13.73;8.40;;;1.00;99.90;;;;;;5055747;28;20021;-67
2021/03/18 00:13:11;;;;;;;17.95;9.57;;;0.90;99.90;;;;;;5055015;28;20415;-69
2021/03/18 00:15:38;;;;;;;15.38;10.70;;;0.90;99.90;;;;;;5036886;28;20060;-67
2021/03/18 00:18:06;;;;;;;23.05;12.20;;;0.90;99.90;;;;;;5035915;28;20484;-67
2021/03/18 00:20:31;;;;;;;20.23;11.55;;;0.90;99.90;;;;;;5036830;28;20373;-68
2021/03/18 00:22:57;;;;;;;16.83;11.48;;;0.90;99.90;;;;;;5052684;28;20033;-67
2021/03/18 00:25:22;;;;;;;17.98;10.52;;;0.80;99.90;;;;;;5073967;28;20042;-67
2021/03/18 00:27:48;;;;;;;13.90;10.68;;;0.80;99.90;;;;;;5065140;28;20486;-68
2021/03/18 00:30:16;;;;;;;13.38;10.05;;;0.80;99.90;;;;;;5057926;28;20017;-68
2021/03/18 00:32:42;;;;;;;15.13;10.68;;;0.80;99.90;;;;;;5076365;28;20033;-67
2021/03/18 00:35:11;;;;;;;15.68;10.52;;;0.80;99.90;;;;;;5070903;28;20028;-67
2021/03/18 00:37:39;;;;;;;18.85;10.68;;;0.90;99.90;;;;;;5056689;28;20029;-69
2021/03/18 00:40:08;;;;;;;19.20;12.30;;;0.90;99.90;;;;;;5055477;28;20059;-67
2021/03/18 00:42:34;;;;;;;25.20;12.73;;;0.90;99.90;;;;;;5054914;28;20021;-67
2021/03/18 00:45:00;;;;;;;18.80;12.43;;;0.90;99.90;;;;;;5042907;28;20033;-67
2021/03/18 00:47:25;;;;;;;23.23;12.48;;;0.90;99.90;;;;;;5034941;28;20145;-67
2021/03/18 00:49:51;;;;;;;15.02;10.85;;;0.90;99.90;;;;;;5035136;28;20020;-67
2021/03/18 00:52:16;;;;;;;17.15;10.20;;;0.90;99.90;;;;;;5035060;28;20456;-66
2021/03/18 00:54:42;;;;;;;16.33;9.88;;;0.90;99.90;;;;;;5034492;28;20029;-68
2021/03/18 00:57:08;;;;;;;18.90;10.43;;;1.00;99.90;;;;;;5040727;28;20025;-69
2021/03/18 00:59:33;;;;;;;15.23;10.25;;;0.90;99.90;;;;;;5053985;28;20510;-68
2021/03/18 01:01:59;;;;;;;22.25;11.80;;;0.90;99.90;;;;;;5054337;28;20025;-67
2021/03/18 01:04:24;;;;;;;22.20;11.77;;;1.00;99.90;;;;;;5053306;28;20029;-67
2021/03/18 01:06:50;;;;;;;18.65;11.73;;;1.00;99.90;;;;;;5053985;28;20029;-68
2021/03/18 01:09:16;;;;;;;19.38;11.68;;;1.00;99.90;;;;;;5053553;28;20092;-68
2021/03/18 01:11:42;;;;;;;18.48;11.45;;;0.90;99.90;;;;;;5053909;28;20037;-67
2021/03/18 01:14:10;;;;;;;21.20;11.68;;;0.90;99.90;;;;;;5053513;28;20036;-67
2021/03/18 01:16:51;;;;;;;21.33;12.73;;;0.90;99.90;;;;;;5053551;28;20059;-67
2021/03/18 01:19:17;;;;;;;26.95;18.63;;;0.90;99.90;;;;;;5053729;28;20058;-68
2021/03/18 01:21:46;;;;;;;24.08;17.25;;;0.90;99.90;;;;;;5054045;28;20033;-69
2021/03/18 01:24:12;;;;;;;29.17;19.25;;;0.90;99.90;;;;;;5052751;28;20491;-68
2021/03/18 01:26:40;;;;;;;26.45;19.00;;;0.90;99.90;;;;;;5053678;28;20024;-68
2021/03/18 01:29:07;;;;;;;30.55;18.55;;;0.90;99.90;;;;;;5054031;28;20021;-67
2021/03/18 01:31:33;;;;;;;27.45;18.45;;;0.90;99.90;;;;;;5052771;28;20052;-68
2021/03/18 01:33:59;;;;;;;26.63;19.20;;;1.00;99.90;;;;;;5053404;28;20494;-67
2021/03/18 01:36:26;;;;;;;33.40;20.67;;;1.10;99.90;;;;;;5059360;28;20043;-67
2021/03/18 01:38:51;;;;;;;28.08;19.33;;;1.10;99.90;;;;;;5066728;28;20028;-68
2021/03/18 01:41:19;;;;;;;31.65;18.83;;;1.10;99.90;;;;;;5053039;28;20480;-69
2021/03/18 01:43:45;;;;;;;32.10;19.48;;;1.20;99.90;;;;;;5053459;28;20488;-68
2021/03/18 01:46:12;;;;;;;21.77;14.98;;;1.30;99.90;;;;;;5053899;28;20059;-66
2021/03/18 01:48:39;;;;;;;20.83;13.75;;;1.30;99.90;;;;;;5054350;28;20036;-68
2021/03/18 01:51:05;;;;;;;25.17;15.60;;;1.30;99.90;;;;;;5053607;28;20025;-68
2021/03/18 01:53:31;;;;;;;28.42;18.48;;;1.40;99.90;;;;;;5052495;28;20024;-67
2021/03/18 01:55:58;;;;;;;31.38;14.23;;;1.30;99.90;;;;;;5053358;28;20471;-67
2021/03/18 01:58:24;;;;;;;22.50;13.30;;;1.40;99.90;;;;;;5053641;28;20044;-69
2021/03/18 02:00:57;;;;;;;22.05;14.02;;;1.40;99.90;;;;;;5053447;28;20100;-67
2021/03/18 02:03:24;;;;;;;23.52;14.10;;;1.30;99.90;;;;;;5053465;28;20029;-67
2021/03/18 02:05:51;;;;;;;23.65;14.48;;;1.40;99.90;;;;;;5053509;28;20020;-68
2021/03/18 02:08:17;;;;;;;17.48;13.05;;;1.30;99.90;;;;;;5060826;28;20032;-68
2021/03/18 02:10:43;;;;;;;17.45;12.60;;;1.30;99.90;;;;;;5070922;28;20041;-67
2021/03/18 02:13:11;;;;;;;23.25;14.98;;;1.30;99.90;;;;;;5071653;28;20001;-68
2021/03/18 02:15:57;;;;;;;27.85;14.13;;;1.20;99.90;;;;;;5070769;28;20092;-68
2021/03/18 02:18:56;;;;;;;27.45;15.20;;;1.20;99.90;;;;;;5072544;28;20021;-67
2021/03/18 02:21:22;;;;;;;20.20;14.20;;;1.20;99.90;;;;;;5037472;28;20078;-68
2021/03/18 02:24:20;;;;;;;20.70;14.80;;;1.30;99.90;;;;;;5032482;28;20524;-66
2021/03/18 02:26:52;;;;;;;27.08;15.80;;;1.20;99.90;;;;;;5051355;28;20094;-67
2021/03/18 02:29:26;;;;;;;26.58;14.48;;;1.30;99.90;;;;;;5052976;28;20457;-68
2021/03/18 02:32:30;;;;;;;23.48;15.55;;;1.30;99.90;;;;;;5052071;28;20512;-67
2021/03/18 02:35:08;;;;;;;21.70;13.23;;;1.20;99.90;;;;;;5051919;28;20039;-68
2021/03/18 02:37:38;;;;;;;24.67;13.80;;;1.20;99.90;;;;;;5052310;28;20434;-67
2021/03/18 02:40:10;;;;;;;23.02;13.73;;;1.20;99.90;;;;;;5052790;28;20033;-67
2021/03/18 02:42:37;;;;;;;19.02;13.80;;;1.20;99.90;;;;;;5052321;28;20036;-67
2021/03/18 02:45:05;;;;;;;26.38;14.73;;;1.20;99.90;;;;;;5035550;28;20049;-66
2021/03/18 02:47:34;;;;;;;22.13;14.85;;;1.20;99.90;;;;;;5032618;28;20083;-67
2021/03/18 02:50:01;;;;;;;24.80;14.23;;;1.20;99.90;;;;;;5032864;28;20551;-67
2021/03/18 02:52:31;;;;;;;23.88;16.05;;;1.20;99.90;;;;;;5032906;28;20819;-68
2021/03/18 02:54:59;;;;;;;30.30;16.60;;;1.20;99.90;;;;;;5032833;28;20033;-68
2021/03/18 02:57:27;;;;;;;29.83;15.13;;;1.20;99.90;;;;;;5033745;28;20030;-67
2021/03/18 02:59:54;;;;;;;22.95;16.08;;;1.20;99.90;;;;;;5034631;28;20649;-69
2021/03/18 03:02:24;;;;;;;28.10;15.43;;;1.20;99.90;;;;;;5034196;28;20033;-69
2021/03/18 03:04:52;;;;;;;24.48;15.25;;;1.20;99.90;;;;;;5032167;28;20112;-68
2021/03/18 03:07:19;;;;;;;27.35;15.68;;;1.20;99.90;;;;;;5050528;28;20379;-68
2021/03/18 03:09:47;;;;;;;25.33;15.55;;;1.20;99.90;;;;;;5054814;28;20499;-69
2021/03/18 03:12:14;;;;;;;24.20;16.67;;;1.20;99.90;;;;;;5053910;28;20086;-69
2021/03/18 03:14:44;;;;;;;23.77;15.80;;;1.20;99.90;;;;;;5051493;28;20029;-69
2021/03/18 03:17:12;;;;;;;23.75;14.55;;;1.10;99.90;;;;;;5051968;28;20043;-69
2021/03/18 03:19:41;;;;;;;23.88;15.45;;;1.20;99.90;;;;;;5052480;28;20390;-69
2021/03/18 03:22:08;;;;;;;23.40;14.90;;;1.10;99.90;;;;;;5052147;28;20028;-68
2021/03/18 03:24:35;;;;;;;26.00;15.02;;;1.10;99.90;;;;;;5051792;28;20498;-68
2021/03/18 03:27:02;;;;;;;22.83;15.57;;;1.10;99.90;;;;;;5051438;28;20426;-68
2021/03/18 03:29:29;;;;;;;20.08;15.10;;;1.00;99.90;;;;;;5052334;28;20017;-68
2021/03/18 03:31:56;;;;;;;20.88;15.98;;;1.00;99.90;;;;;;5040975;28;20022;-68
2021/03/18 03:34:22;;;;;;;27.20;16.75;;;1.10;99.90;;;;;;5031616;28;20021;-69
2021/03/18 03:36:48;;;;;;;30.13;17.85;;;1.10;99.90;;;;;;5032138;28;20037;-67
2021/03/18 03:39:14;;;;;;;32.60;18.00;;;1.10;99.90;;;;;;5032558;28;20083;-69
2021/03/18 03:41:40;;;;;;;38.28;20.52;;;1.20;99.90;;;;;;5032704;28;20044;-69
2021/03/18 03:44:07;;;;;;;33.67;19.05;;;1.20;99.90;;;;;;5031281;28;20025;-68
2021/03/18 03:46:34;;;;;;;37.03;19.77;;;1.20;99.90;;;;;;5031968;28;20025;-68
2021/03/18 03:49:00;;;;;;;34.13;19.30;;;1.30;99.90;;;;;;5031863;28;20052;-68
2021/03/18 03:51:49;;;;;;;34.72;19.48;;;1.20;99.90;;;;;;5032000;28;20105;-68
2021/03/18 03:54:17;;;;;;;29.90;17.45;;;1.20;99.90;;;;;;5036959;28;20028;-67
2021/03/18 03:57:05;;;;;;;30.65;17.85;;;1.20;99.90;;;;;;5051700;28;20487;-67
2021/03/18 03:59:34;;;;;;;27.88;17.58;;;1.20;99.90;;;;;;5051699;28;20051;-68
2021/03/18 04:02:02;;;;;;;26.25;17.10;;;1.20;99.90;;;;;;5052835;28;20032;-68
2021/03/18 04:04:55;;;;;;;22.75;15.32;;;1.20;99.90;;;;;;5052505;28;20595;-68
2021/03/18 04:07:27;;;;;;;24.48;16.20;;;1.20;99.90;;;;;;5052349;28;20027;-68
2021/03/18 04:09:53;;;;;;;28.90;15.82;;;1.20;99.90;;;;;;5055508;28;20021;-68
2021/03/18 04:12:23;;;;;;;25.75;15.35;;;1.30;99.90;;;;;;5057684;28;20534;-68
2021/03/18 04:14:58;;;;;;;28.88;17.25;;;1.30;99.90;;;;;;5050870;28;20112;-69
2021/03/18 04:17:25;;;;;;;27.88;16.63;;;1.30;99.90;;;;;;5055127;28;20025;-68
2021/03/18 04:19:55;;;;;;;27.77;16.58;;;1.30;99.90;;;;;;5071166;28;20024;-68
2021/03/18 04:22:21;;;;;;;24.25;16.08;;;1.30;99.90;;;;;;5056494;28;20419;-68
2021/03/18 04:24:49;;;;;;;29.25;16.65;;;1.30;99.90;;;;;;5049557;28;20053;-67
2021/03/18 04:27:17;;;;;;;30.42;17.00;;;1.30;99.90;;;;;;5036964;28;20018;-68
2021/03/18 04:29:44;;;;;;;24.17;16.98;;;1.40;99.90;;;;;;5035743;28;20032;-68
2021/03/18 04:32:11;;;;;;;24.33;16.60;;;1.40;99.90;;;;;;5065172;28;20017;-68
2021/03/18 04:34:38;;;;;;;25.30;18.17;;;1.40;99.90;;;;;;5062087;28;20028;-68
2021/03/18 04:37:07;;;;;;;31.45;18.08;;;1.30;99.90;;;;;;5051265;28;20056;-69
2021/03/18 04:39:37;;;;;;;24.70;16.58;;;1.40;99.90;;;;;;5050726;28;20036;-67
2021/03/18 04:42:05;;;;;;;30.90;18.45;;;1.30;99.90;;;;;;5050963;28;20017;-69
2021/03/18 04:44:32;;;;;;;27.27;16.60;;;1.40;99.90;;;;;;5051852;28;20028;-68
2021/03/18 04:47:00;;;;;;;27.30;16.75;;;1.40;99.90;;;;;;5054472;28;20464;-67
2021/03/18 04:49:26;;;;;;;31.58;16.00;;;1.30;99.90;;;;;;5054459;28;20047;-69
2021/03/18 04:51:53;;;;;;;26.85;15.38;;;1.40;99.90;;;;;;5055001;28;20029;-66
2021/03/18 04:54:18;;;;;;;21.35;15.13;;;1.40;99.90;;;;;;5053967;28;20121;-67
2021/03/18 04:56:45;;;;;;;21.55;14.38;;;1.30;99.90;;;;;;5054458;28;20515;-67
2021/03/18 04:59:16;;;;;;;24.30;14.27;;;1.30;99.90;;;;;;5036491;28;20127;-68
2021/03/18 05:01:48;;;;;;;23.35;15.82;;;1.30;99.90;;;;;;5034973;28;20044;-67
2021/03/18 05:04:20;;;;;;;;;;;1.20;99.90;;;;;;5035005;28;21953;-67
2021/03/18 05:06:55;;;;;;;22.92;13.40;;;1.20;99.90;;;;;;5034664;28;19916;-68
2021/03/18 05:09:25;;;;;;;24.45;15.32;;;1.20;99.90;;;;;;5035301;28;20033;-69
2021/03/18 05:11:53;;;;;;;25.10;16.00;;;1.20;99.90;;;;;;5034875;28;20064;-68
2021/03/18 05:14:19;;;;;;;23.58;15.32;;;1.30;99.90;;;;;;5033858;28;20018;-67
2021/03/18 05:16:45;;;;;;;27.30;16.35;;;1.20;99.90;;;;;;5034736;28;20037;-68
2021/03/18 05:19:13;;;;;;;24.63;15.48;;;1.20;99.90;;;;;;5035437;28;20030;-67
2021/03/18 05:21:42;;;;;;;32.58;18.17;;;1.20;99.90;;;;;;5054292;28;20056;-67
2021/03/18 05:24:09;;;;;;;23.13;15.60;;;1.20;99.90;;;;;;5053569;28;20083;-68
2021/03/18 05:26:35;;;;;;;25.60;15.82;;;1.10;99.90;;;;;;5053576;28;20039;-68
2021/03/18 05:29:01;;;;;;;27.10;17.55;;;1.10;99.90;;;;;;5054341;28;20430;-68
2021/03/18 05:31:26;;;;;;;28.35;18.30;;;1.20;99.90;;;;;;5053523;28;20032;-70
2021/03/18 05:33:52;;;;;;;25.95;16.70;;;1.20;99.90;;;;;;5052642;28;20384;-67
2021/03/18 05:36:19;;;;;;;30.25;17.77;;;1.20;99.90;;;;;;5054260;28;20058;-67
2021/03/18 05:38:45;;;;;;;28.48;17.48;;;1.10;99.90;;;;;;5054173;28;20040;-68
2021/03/18 05:41:10;;;;;;;28.77;18.17;;;1.10;99.90;;;;;;5053343;28;20033;-68
2021/03/18 05:43:36;;;;;;;30.33;18.58;;;1.10;99.90;;;;;;5053591;28;20037;-67
2021/03/18 05:46:03;;;;;;;30.30;19.30;;;1.20;99.90;;;;;;5045565;28;20071;-68
2021/03/18 05:48:29;;;;;;;29.67;19.75;;;1.30;99.90;;;;;;5046013;28;20409;-68
2021/03/18 05:50:56;;;;;;;34.35;19.33;;;1.30;99.90;;;;;;5059681;28;20028;-68
2021/03/18 05:53:23;;;;;;;35.38;20.13;;;1.50;99.90;;;;;;5054722;28;20622;-68
2021/03/18 05:55:53;;;;;;;37.25;20.60;;;1.50;99.90;;;;;;5042411;28;20029;-69
2021/03/18 05:58:24;;;;;;;32.30;19.45;;;1.50;99.90;;;;;;5035056;28;20029;-70
2021/03/18 06:00:51;;;;;;;26.55;17.35;;;1.50;99.90;;;;;;5053158;28;20029;-66
2021/03/18 06:03:18;;;;;;;30.17;19.23;;;1.50;99.90;;;;;;5054479;28;20993;-68
2021/03/18 06:05:44;;;;;;;31.27;18.77;;;1.60;99.90;;;;;;5056116;28;20033;-67
2021/03/18 06:08:11;;;;;;;27.00;18.10;;;1.60;99.90;;;;;;5055288;28;20024;-66
2021/03/18 06:10:36;;;;;;;28.73;18.73;;;1.60;99.90;;;;;;5055159;28;20033;-66
2021/03/18 06:13:02;;;;;;;28.42;17.73;;;1.70;99.90;;;;;;5054852;28;20031;-64
2021/03/18 06:15:29;;;;;;;24.55;15.57;;;1.60;99.90;;;;;;5056012;28;20375;-65
2021/03/18 06:17:55;;;;;;;33.05;16.80;;;1.60;99.90;;;;;;5058382;28;20021;-66
2021/03/18 06:20:27;;;;;;;23.83;16.38;;;1.60;99.90;;;;;;5059439;28;20475;-67
2021/03/18 06:22:53;;;;;;;25.30;15.50;;;2.00;99.90;;;;;;5059878;28;20029;-67
2021/03/18 06:25:20;;;;;;;25.98;15.65;;;1.70;99.90;;;;;;5060633;28;20025;-68
2021/03/18 06:27:47;;;;;;;24.55;16.42;;;1.80;99.90;;;;;;5038400;28;20026;-68
2021/03/18 06:30:13;;;;;;;22.00;15.90;;;1.80;99.90;;;;;;5038525;28;20041;-69
2021/03/18 06:32:39;;;;;;;23.50;14.68;;;1.90;99.90;;;;;;5037792;28;20049;-69
2021/03/18 06:35:05;;;;;;;22.48;14.52;;;2.00;99.90;;;;;;5036875;28;20092;-68
2021/03/18 06:37:43;;;;;;;24.95;15.20;;;2.00;99.90;;;;;;5035335;28;20092;-67
2021/03/18 06:40:14;;;;;;;22.90;14.30;;;2.10;99.90;;;;;;5039970;28;20024;-66
2021/03/18 06:42:41;;;;;;;23.50;14.73;;;2.10;99.90;;;;;;5053914;28;20120;-67
2021/03/18 06:45:12;;;;;;;22.08;13.38;;;2.20;99.90;;;;;;5052878;28;20025;-66
2021/03/18 06:47:54;;;;;;;16.52;12.77;;;2.20;99.90;;;;;;5035255;28;20025;-65
2021/03/18 06:50:22;;;;;;;21.38;12.98;;;2.20;99.90;;;;;;5033907;28;20103;-67
2021/03/18 06:52:48;;;;;;;18.60;13.27;;;2.00;99.90;;;;;;5034211;28;20696;-67
2021/03/18 06:55:26;;;;;;;24.40;13.93;;;2.00;99.90;;;;;;5034399;28;20075;-67
2021/03/18 06:58:12;;;;;;;20.38;13.55;;;2.10;99.90;;;;;;5034933;28;20055;-67
2021/03/18 07:00:38;;;;;;;22.60;13.70;;;2.20;99.90;;;;;;5034562;28;20074;-67
2021/03/18 07:03:04;;;;;;;20.83;14.18;;;2.20;99.90;;;;;;5036165;28;20025;-68
2021/03/18 07:05:38;;;;;;;21.58;13.70;;;2.10;99.90;;;;;;5054094;28;20025;-68
2021/03/18 07:08:04;;;;;;;23.40;14.40;;;2.20;99.90;;;;;;5052826;28;20032;-67
2021/03/18 07:10:36;;;;;;;19.38;12.85;;;2.20;99.90;;;;;;5053403;28;20028;-66
2021/03/18 07:13:19;;;;;;;23.33;14.55;;;2.20;99.90;;;;;;5053537;28;20017;-66
2021/03/18 07:15:46;;;;;;;18.33;12.75;;;2.20;99.90;;;;;;5042336;28;20036;-68
2021/03/18 07:18:13;;;;;;;20.75;12.13;;;2.20;99.90;;;;;;5034563;28;20394;-68
2021/03/18 07:20:53;;;;;;;22.55;13.45;;;2.40;99.90;;;;;;5046254;28;20434;-68
2021/03/18 07:23:19;;;;;;;18.90;12.90;;;2.60;99.90;;;;;;5047351;28;20044;-66
2021/03/18 07:25:46;;;;;;;15.20;11.88;;;2.90;99.90;;;;;;5052011;28;20033;-67
2021/03/18 07:28:14;;;;;;;17.33;11.02;;;3.00;99.90;;;;;;5051757;28;20048;-67
2021/03/18 07:30:41;;;;;;;14.95;10.73;;;2.90;99.90;;;;;;5051930;28;20021;-67
2021/03/18 07:33:07;;;;;;;15.43;11.05;;;2.90;99.90;;;;;;5050593;28;20017;-67
2021/03/18 07:35:33;;;;;;;15.80;11.25;;;2.90;99.90;;;;;;5050834;28;20090;-66
2021/03/18 07:37:59;;;;;;;12.73;9.02;;;3.40;99.90;;;;;;5052433;28;20392;-67
2021/03/18 07:40:27;;;;;;;13.82;9.73;;;3.90;99.90;;;;;;5053652;28;20380;-66
2021/03/18 07:42:54;;;;;;;19.08;13.50;;;4.10;99.90;;;;;;5053530;28;20037;-66
2021/03/18 07:45:22;;;;;;;14.55;9.68;;;4.00;99.90;;;;;;5052935;28;20029;-66
2021/03/18 07:47:48;;;;;;;18.38;9.07;;;3.90;99.90;;;;;;5053811;28;20018;-67
2021/03/18 07:50:17;;;;;;;20.10;9.63;;;3.80;99.90;;;;;;5053067;28;20032;-67
2021/03/18 07:52:46;;;;;;;13.25;8.93;;;3.70;99.90;;;;;;5054086;28;20025;-67
2021/03/18 07:55:17;;;;;;;13.57;8.15;;;3.80;99.90;;;;;;5053000;28;20085;-66
2021/03/18 07:57:45;;;;;;;16.00;9.45;;;3.60;99.90;;;;;;5054315;28;20025;-66
2021/03/18 08:00:14;;;;;;;13.57;9.18;;;3.70;99.90;;;;;;5054571;28;20029;-66
2021/03/18 08:02:40;;;;;;;13.32;9.63;;;3.80;99.90;;;;;;5051745;28;20488;-66
2021/03/18 08:05:06;;;;;;;14.43;9.77;;;3.50;99.90;;;;;;5053487;28;20036;-67
2021/03/18 08:07:37;;;;;;;11.07;8.10;;;3.50;99.90;;;;;;5035466;28;20025;-68
2021/03/18 08:10:10;;;;;;;13.18;9.15;;;3.20;99.90;;;;;;5034468;28;20017;-68
2021/03/18 08:12:57;;;;;;;14.02;9.73;;;3.00;99.90;;;;;;5033381;28;20100;-67
2021/03/18 08:15:25;;;;;;;16.58;9.60;;;2.70;99.90;;;;;;5043922;28;20100;-66
2021/03/18 08:17:54;;;;;;;15.20;10.20;;;2.70;99.90;;;;;;5054723;28;20060;-66
2021/03/18 08:20:44;;;;;;;12.98;9.88;;;2.70;99.90;;;;;;5064316;28;20036;-67
2021/03/18 08:23:30;;;;;;;13.95;9.98;;;2.80;99.90;;;;;;5060051;28;20033;-68
2021/03/18 08:26:05;;;;;;;15.55;10.40;;;2.90;99.90;;;;;;5050208;28;20059;-71
2021/03/18 08:28:45;;;;;;;14.95;10.20;;;3.10;99.90;;;;;;5038935;28;20037;-66
2021/03/18 08:31:22;;;;;;;18.17;11.02;;;3.30;99.90;;;;;;5047799;28;20029;-67
2021/03/18 08:33:55;;;;;;;16.65;10.65;;;3.40;99.90;;;;;;5053567;28;20017;-66
2021/03/18 08:36:53;;;;;;;17.27;10.25;;;3.40;99.90;;;;;;5059140;28;20059;-67
2021/03/18 08:39:41;;;;;;;17.05;10.98;;;3.60;99.90;;;;;;5057441;28;20032;-65
2021/03/18 08:42:28;;;;;;;14.52;10.68;;;4.10;99.90;;;;;;5056673;28;20032;-66
2021/03/18 08:45:18;;;;;;;19.02;10.75;;;4.30;99.90;;;;;;5054985;28;20063;-66
2021/03/18 08:47:52;;;;;;;17.00;9.88;;;4.70;99.90;;;;;;5044535;28;20112;-67
2021/03/18 08:50:23;;;;;;;16.65;10.75;;;6.60;99.90;;;;;;5055432;28;20033;-67
2021/03/18 08:52:50;;;;;;;12.48;9.32;;;7.50;99.90;;;;;;5052955;28;20048;-66
2021/03/18 08:55:35;;;;;;;17.83;9.40;;;8.00;99.90;;;;;;5055201;28;20017;-66
2021/03/18 08:58:01;;;;;;;19.17;11.15;;;6.80;99.90;;;;;;5053488;28;20045;-68
2021/03/18 09:00:27;;;;;;;22.60;13.32;;;5.90;99.90;;;;;;5055279;28;20045;-66
2021/03/18 09:02:52;;;;;;;14.00;9.95;;;6.60;99.90;;;;;;5055279;28;20036;-66
2021/03/18 09:05:20;;;;;;;16.75;9.55;;;9.00;99.90;;;;;;5055268;28;20432;-67
2021/03/18 09:07:51;;;;;;;14.13;9.32;;;10.40;99.90;;;;;;5055761;28;20021;-67
2021/03/18 09:10:23;;;;;;;13.90;9.77;;;10.30;99.90;;;;;;5055586;28;20031;-66
2021/03/18 09:12:58;;;;;;;14.10;9.90;;;10.20;99.90;;;;;;5053884;28;20048;-66
2021/03/18 09:15:31;;;;;;;13.20;9.75;;;9.70;99.90;;;;;;5055651;28;20024;-65
2021/03/18 09:18:12;;;;;;;13.52;9.27;;;8.50;99.90;;;;;;5056499;28;20036;-66
2021/03/18 09:20:39;;;;;;;13.50;10.73;;;8.00;99.90;;;;;;5060256;28;20063;-67
2021/03/18 09:23:12;;;;;;;15.13;9.85;;;8.60;99.90;;;;;;5058538;28;20029;-66
2021/03/18 09:25:38;;;;;;;12.43;9.20;;;10.40;99.90;;;;;;5055890;28;20032;-66
2021/03/18 09:28:04;;;;;;;13.45;8.57;;;12.90;99.80;;;;;;5054011;28;20033;-67
2021/03/18 09:30:34;;;;;;;11.98;8.40;;;16.30;91.30;;;;;;5053441;28;20074;-66
2021/03/18 09:32:59;;;;;;;10.88;8.15;;;15.80;80.00;;;;;;5052700;28;20075;-68
2021/03/18 09:35:27;;;;;;;11.32;8.73;;;14.60;82.30;;;;;;5054103;28;20025;-67
2021/03/18 09:37:54;;;;;;;10.48;9.18;;;12.50;89.90;;;;;;5053796;28;20079;-67
2021/03/18 09:40:31;;;;;;;10.25;7.95;;;11.20;93.70;;;;;;5054099;28;20056;-68
2021/03/18 09:42:56;;;;;;;12.38;9.40;;;9.80;93.80;;;;;;5053972;28;20037;-68
2021/03/18 09:45:22;;;;;;;11.02;8.23;;;9.10;97.70;;;;;;5054212;28;20105;-68
2021/03/18 09:47:52;;;;;;;14.68;8.48;;;9.50;97.50;;;;;;5055113;28;20021;-70
2021/03/18 09:50:22;;;;;;;9.05;7.82;;;11.50;95.00;;;;;;5034541;28;20029;-68
2021/03/18 09:52:48;;;;;;;11.60;7.68;;;14.60;90.10;;;;;;5033482;28;20045;-67
2021/03/18 09:55:15;;;;;;;8.88;6.50;;;17.20;77.40;;;;;;5033215;28;20057;-66
2021/03/18 09:57:41;;;;;;;11.52;7.57;;;19.10;64.50;;;;;;5032083;28;20812;-66
2021/03/18 10:00:46;;;;;;;8.23;6.13;;;18.90;63.80;;;;;;5033815;28;20621;-67
2021/03/18 10:09:57;;;;;;;8.10;6.65;;;14.10;71.80;;;;;;5046104;28;20032;-67
2021/03/18 10:12:26;;;;;;;9.82;6.68;;;12.90;76.00;;;;;;5055816;28;20021;-66
2021/03/18 10:14:58;;;;;;;9.77;7.20;;;12.40;78.30;;;;;;5057514;28;20029;-66
2021/03/18 10:17:40;;;;;;;9.80;8.15;;;11.90;80.30;;;;;;5060844;28;20029;-66
2021/03/18 10:20:28;;;;;;;14.23;7.65;;;10.00;85.60;;;;;;5062075;28;20386;-67
2021/03/18 10:22:58;;;;;;;10.07;7.47;;;8.80;90.90;;;;;;5043084;28;20037;-67
2021/03/18 10:25:27;;;;;;;15.95;7.68;;;8.60;92.40;;;;;;5044521;28;20029;-66
2021/03/18 10:28:10;;;;;;;9.95;7.78;;;8.20;93.20;;;;;;5036499;28;20026;-67
2021/03/18 10:30:47;;;;;;;12.65;10.20;;;7.40;94.80;;;;;;5047255;28;20056;-66
2021/03/18 10:33:13;;;;;;;10.93;8.00;;;7.40;97.70;;;;;;5053817;28;20046;-66
2021/03/18 10:35:42;;;;;;;9.27;7.00;;;7.60;96.70;;;;;;5051889;28;20055;-67
2021/03/18 10:38:10;;;;;;;10.02;7.70;;;7.70;96.80;;;;;;5052963;28;20029;-66
2021/03/18 10:40:47;;;;;;;13.23;7.22;;;7.40;96.60;;;;;;5052165;28;20021;-67
2021/03/18 10:43:31;;;;;;;13.10;7.45;;;7.00;97.70;;;;;;5051450;28;20026;-67
2021/03/18 10:46:01;;;;;;;11.77;7.07;;;7.40;97.20;;;;;;5052208;28;20386;-67
2021/03/18 10:48:30;;;;;;;7.97;7.15;;;7.30;97.20;;;;;;5053016;28;20029;-66
2021/03/18 10:51:21;;;;;;;8.00;7.20;;;7.00;97.20;;;;;;5053246;28;20087;-67
2021/03/18 10:53:48;;;;;;;10.82;8.25;;;7.10;97.10;;;;;;5049620;28;20044;-65
2021/03/18 10:56:17;;;;;;;11.73;7.28;;;7.40;98.50;;;;;;5032452;28;20026;-68
2021/03/18 10:58:44;;;;;;;10.55;6.60;;;7.20;97.10;;;;;;5033034;28;20049;-67
2021/03/18 11:01:12;;;;;;;10.20;7.50;;;7.60;97.60;;;;;;5032747;28;20029;-67
2021/03/18 11:03:42;;;;;;;12.02;7.70;;;8.00;96.70;;;;;;5031474;28;20553;-67
2021/03/18 11:06:22;;;;;;;10.60;7.35;;;8.10;97.00;;;;;;5032945;28;20033;-66
2021/03/18 11:08:53;;;;;;;9.23;6.43;;;8.30;96.50;;;;;;5032220;28;20133;-65
2021/03/18 11:11:21;;;;;;;10.95;7.82;;;8.30;95.20;;;;;;5032309;28;20096;-66
2021/03/18 11:13:48;;;;;;;9.48;7.22;;;7.80;96.80;;;;;;5031587;28;20033;-66
2021/03/18 11:16:24;;;;;;;11.82;6.32;;;7.60;97.30;;;;;;5048284;28;20078;-65
2021/03/18 11:18:57;;;;;;;7.82;5.47;;;7.90;97.00;;;;;;5051947;28;20023;-69
2021/03/18 11:21:29;;;;;;;8.05;4.97;;;8.00;96.40;;;;;;5052718;28;20017;-66
2021/03/18 11:24:02;;;;;;;;;;;8.50;94.20;;;;;;5052200;28;20029;-68
2021/03/18 11:26:28;;;;;;;8.93;5.47;;;8.70;93.60;;;;;;5058070;28;19912;-68
2021/03/18 11:29:08;;;;;;;9.20;5.28;;;8.90;93.40;;;;;;5052247;28;20491;-65
2021/03/18 11:31:37;;;;;;;8.05;5.35;;;9.10;95.50;;;;;;5051774;28;20021;-68
2021/03/18 11:34:18;;;;;;;7.30;4.97;;;9.20;94.80;;;;;;5050709;28;20036;-70
2021/03/18 11:36:47;;;;;;;7.82;5.78;;;9.30;94.80;;;;;;5052252;28;20090;-67
2021/03/18 11:39:17;;;;;;;8.20;6.80;;;9.60;94.50;;;;;;5051765;28;20496;-66
2021/03/18 11:41:43;;;;;;;8.48;6.93;;;10.00;96.50;;;;;;5051855;28;20058;-68
2021/03/18 11:44:09;;;;;;;11.30;7.47;;;9.80;97.30;;;;;;5052973;28;20020;-71
2021/03/18 11:46:35;;;;;;;7.38;6.30;;;9.40;99.50;;;;;;5034185;28;20037;-70
2021/03/18 11:49:01;;;;;;;6.18;4.63;;;9.90;99.90;;;;;;5033675;28;20029;-71
2021/03/18 11:51:27;;;;;;;5.45;4.57;;;10.10;99.90;;;;;;5048541;28;20036;-71
2021/03/18 11:53:53;;;;;;;5.95;4.72;;;10.10;99.90;;;;;;5055514;28;20055;-70
2021/03/18 11:56:19;;;;;;;4.40;4.00;;;10.60;99.90;;;;;;5055929;28;20027;-70
2021/03/18 11:58:45;;;;;;;5.38;4.82;;;11.00;99.90;;;;;;5052316;28;20083;-67
2021/03/18 12:01:11;;;;;;;6.93;4.82;;;11.80;95.00;;;;;;5055540;28;20017;-67
2021/03/18 12:03:37;;;;;;;6.35;4.45;;;12.40;95.10;;;;;;5053511;28;20442;-67
2021/03/18 12:06:03;;;;;;;5.43;4.57;;;12.50;93.40;;;;;;5053957;28;20032;-67
2021/03/18 12:08:29;;;;;;;6.18;3.83;;;13.10;92.60;;;;;;5054485;28;20116;-69
2021/03/18 12:10:56;;;;;;;3.90;3.35;;;14.00;91.40;;;;;;5054457;28;20021;-68
2021/03/18 12:13:22;;;;;;;3.45;3.10;;;14.80;87.20;;;;;;5053319;28;20444;-66
2021/03/18 12:15:47;;;;;;;2.80;2.60;;;14.00;80.70;;;;;;5051373;28;20107;-66
2021/03/18 12:18:13;;;;;;;3.08;2.88;;;13.30;83.40;;;;;;5053152;28;21482;-66
2021/03/18 12:20:39;;;;;;;3.15;2.88;;;13.10;84.20;;;;;;5053840;28;20125;-67
2021/03/18 12:23:05;;;;;;;3.45;2.50;;;13.00;82.70;;;;;;5052509;28;20032;-66
2021/03/18 12:25:31;;;;;;;3.10;2.90;;;13.00;83.50;;;;;;5053219;28;20037;-67
2021/03/18 12:27:56;;;;;;;4.32;2.40;;;12.70;80.70;;;;;;5054605;28;20060;-67
2021/03/18 12:30:23;;;;;;;4.93;3.90;;;11.70;76.00;;;;;;5055720;28;20135;-67
2021/03/18 12:32:50;;;;;;;3.80;3.30;;;11.30;74.80;;;;;;5055037;28;20103;-66
2021/03/18 12:35:17;;;;;;;3.30;2.90;;;11.00;75.80;;;;;;5044813;28;20018;-68
2021/03/18 12:37:45;;;;;;;3.70;3.28;;;10.20;77.30;;;;;;5056178;28;20029;-65
2021/03/18 12:40:12;;;;;;;5.72;3.60;;;9.60;82.20;;;;;;5073412;28;20032;-66
2021/03/18 12:42:38;;;;;;;5.80;3.42;;;9.30;88.20;;;;;;5068931;28;20029;-66
2021/03/18 12:45:06;;;;;;;6.18;3.40;;;8.90;88.10;;;;;;5055416;28;20027;-66
2021/03/18 12:47:32;;;;;;;4.55;3.22;;;8.60;88.50;;;;;;5068590;28;20032;-67
2021/03/18 12:49:57;;;;;;;5.10;3.85;;;8.60;90.30;;;;;;5070755;28;20117;-66
2021/03/18 12:52:23;;;;;;;7.70;3.75;;;9.10;90.00;;;;;;5060842;28;20025;-67
2021/03/18 12:54:49;;;;;;;4.32;3.45;;;9.30;89.90;;;;;;5040186;28;20052;-66
2021/03/18 12:57:14;;;;;;;6.50;4.03;;;9.40;86.40;;;;;;5037078;28;20488;-67
2021/03/18 12:59:40;;;;;;;5.85;3.85;;;9.70;89.70;;;;;;5047694;28;20025;-66